sensor_id;sensor_type;location;lat;lon;timestamp;pressure;altitude;pressure_sealevel;temperature;humidity
56182;BME280;51963;46.052;14.544;2022-10-22T00:00:22;98466.53;;;15.58;100.00
56182;BME280;51963;46.052;14.544;2022-10-22T00:02:48;98472.13;;;15.50;100.00
56182;BME280;51963;46.052;14.544;2022-10-22T00:05:14;98462.22;;;15.57;100.00
56182;BME280;51963;46.052;14.544;2022-10-22T00:07:40;98456.47;;;15.60;100.00
56182;BME280;51963;46.052;14.544;2022-10-22T00:10:06;98455.03;;;15.83;100.00
56182;BME280;51963;46.052;14.544;2022-10-22T00:12:33;98455.47;;;15.80;100.00
56182;BME280;51963;46.052;14.544;2022-10-22T00:14:58;98463.91;;;15.77;100.00
56182;BME280;51963;46.052;14.544;2022-10-22T00:17:24;98454.88;;;15.78;100.00
56182;BME280;51963;46.052;14.544;2022-10-22T00:19:50;98446.06;;;15.77;100.00
56182;BME280;51963;46.052;14.544;2022-10-22T00:22:15;98444.75;;;15.87;100.00
56182;BME280;51963;46.052;14.544;2022-10-22T00:24:41;98448.25;;;15.87;100.00
56182;BME280;51963;46.052;14.544;2022-10-22T00:27:09;98451.56;;;15.82;100.00
56182;BME280;51963;46.052;14.544;2022-10-22T00:29:35;98447.59;;;15.92;100.00
56182;BME280;51963;46.052;14.544;2022-10-22T00:32:02;98443.69;;;15.94;100.00
56182;BME280;51963;46.052;14.544;2022-10-22T00:34:28;98437.38;;;15.89;100.00
56182;BME280;51963;46.052;14.544;2022-10-22T00:36:54;98443.50;;;15.89;100.00
56182;BME280;51963;46.052;14.544;2022-10-22T00:39:21;98444.13;;;15.91;100.00
56182;BME280;51963;46.052;14.544;2022-10-22T00:41:49;98429.19;;;15.90;100.00
56182;BME280;51963;46.052;14.544;2022-10-22T00:47:18;98425.25;;;15.86;100.00
56182;BME280;51963;46.052;14.544;2022-10-22T00:49:45;98425.25;;;15.86;100.00
56182;BME280;51963;46.052;14.544;2022-10-22T00:52:11;98418.72;;;15.89;100.00
56182;BME280;51963;46.052;14.544;2022-10-22T00:54:38;98429.31;;;15.95;100.00
56182;BME280;51963;46.052;14.544;2022-10-22T00:57:05;98430.81;;;15.91;100.00
56182;BME280;51963;46.052;14.544;2022-10-22T00:59:31;98427.91;;;15.93;100.00
56182;BME280;51963;46.052;14.544;2022-10-22T01:01:58;98418.00;;;15.75;100.00
56182;BME280;51963;46.052;14.544;2022-10-22T01:04:23;98421.84;;;15.79;100.00
56182;BME280;51963;46.052;14.544;2022-10-22T01:06:49;98425.88;;;15.88;100.00
56182;BME280;51963;46.052;14.544;2022-10-22T01:14:28;98407.13;;;16.02;100.00
56182;BME280;51963;46.052;14.544;2022-10-22T01:17:41;98406.97;;;15.96;100.00
56182;BME280;51963;46.052;14.544;2022-10-22T01:22:54;98396.56;;;15.88;100.00
56182;BME280;51963;46.052;14.544;2022-10-22T01:25:49;98396.81;;;15.80;100.00
56182;BME280;51963;46.052;14.544;2022-10-22T01:31:09;98400.16;;;15.75;100.00
56182;BME280;51963;46.052;14.544;2022-10-22T01:33:39;98387.47;;;15.70;100.00
56182;BME280;51963;46.052;14.544;2022-10-22T01:36:05;98378.69;;;15.70;100.00
56182;BME280;51963;46.052;14.544;2022-10-22T01:38:32;98372.03;;;15.79;100.00
56182;BME280;51963;46.052;14.544;2022-10-22T01:40:59;98366.47;;;15.81;100.00
56182;BME280;51963;46.052;14.544;2022-10-22T01:43:24;98366.09;;;15.77;100.00
56182;BME280;51963;46.052;14.544;2022-10-22T01:45:55;98370.59;;;15.77;100.00
56182;BME280;51963;46.052;14.544;2022-10-22T01:59:06;98359.94;;;15.77;100.00
56182;BME280;51963;46.052;14.544;2022-10-22T02:04:28;98351.81;;;15.72;100.00
56182;BME280;51963;46.052;14.544;2022-10-22T02:06:58;98346.91;;;15.68;100.00
56182;BME280;51963;46.052;14.544;2022-10-22T02:09:25;98342.19;;;15.70;100.00
56182;BME280;51963;46.052;14.544;2022-10-22T02:11:53;98341.50;;;15.57;100.00
56182;BME280;51963;46.052;14.544;2022-10-22T02:14:19;98335.88;;;15.46;100.00
56182;BME280;51963;46.052;14.544;2022-10-22T02:16:47;98347.50;;;15.52;100.00
56182;BME280;51963;46.052;14.544;2022-10-22T02:19:23;98334.16;;;15.52;100.00
56182;BME280;51963;46.052;14.544;2022-10-22T02:21:50;98339.28;;;15.53;100.00
56182;BME280;51963;46.052;14.544;2022-10-22T02:24:16;98339.22;;;15.60;100.00
56182;BME280;51963;46.052;14.544;2022-10-22T02:27:37;98326.34;;;15.76;100.00
56182;BME280;51963;46.052;14.544;2022-10-22T02:32:27;98316.41;;;15.83;100.00
56182;BME280;51963;46.052;14.544;2022-10-22T02:34:56;98322.75;;;15.89;100.00
56182;BME280;51963;46.052;14.544;2022-10-22T02:37:24;98307.81;;;15.81;100.00
56182;BME280;51963;46.052;14.544;2022-10-22T02:39:51;98315.13;;;15.92;100.00
56182;BME280;51963;46.052;14.544;2022-10-22T02:42:17;98318.59;;;15.93;100.00
56182;BME280;51963;46.052;14.544;2022-10-22T02:44:43;98324.53;;;15.95;100.00
56182;BME280;51963;46.052;14.544;2022-10-22T02:47:09;98327.72;;;16.04;100.00
56182;BME280;51963;46.052;14.544;2022-10-22T02:49:34;98324.06;;;15.98;100.00
56182;BME280;51963;46.052;14.544;2022-10-22T02:52:00;98335.91;;;16.02;100.00
56182;BME280;51963;46.052;14.544;2022-10-22T02:54:26;98330.38;;;16.04;100.00
56182;BME280;51963;46.052;14.544;2022-10-22T02:56:51;98332.59;;;16.07;100.00
56182;BME280;51963;46.052;14.544;2022-10-22T02:59:17;98327.25;;;16.07;100.00
56182;BME280;51963;46.052;14.544;2022-10-22T03:01:43;98310.66;;;16.05;100.00
56182;BME280;51963;46.052;14.544;2022-10-22T03:04:08;98313.06;;;15.94;100.00
56182;BME280;51963;46.052;14.544;2022-10-22T03:06:34;98318.97;;;15.96;100.00
56182;BME280;51963;46.052;14.544;2022-10-22T03:09:00;98320.13;;;15.82;100.00
56182;BME280;51963;46.052;14.544;2022-10-22T03:11:25;98299.78;;;15.69;100.00
56182;BME280;51963;46.052;14.544;2022-10-22T03:13:51;98303.38;;;15.75;100.00
56182;BME280;51963;46.052;14.544;2022-10-22T03:16:17;98296.13;;;15.63;100.00
56182;BME280;51963;46.052;14.544;2022-10-22T03:18:42;98276.38;;;15.52;100.00
56182;BME280;51963;46.052;14.544;2022-10-22T03:21:38;98286.34;;;15.57;100.00
56182;BME280;51963;46.052;14.544;2022-10-22T03:24:12;98297.63;;;15.59;100.00
56182;BME280;51963;46.052;14.544;2022-10-22T03:26:40;98296.88;;;15.52;100.00
56182;BME280;51963;46.052;14.544;2022-10-22T03:29:08;98304.50;;;15.48;100.00
56182;BME280;51963;46.052;14.544;2022-10-22T03:31:34;98289.63;;;15.40;100.00
56182;BME280;51963;46.052;14.544;2022-10-22T03:33:59;98313.25;;;15.55;100.00
56182;BME280;51963;46.052;14.544;2022-10-22T03:36:25;98303.81;;;15.53;100.00
56182;BME280;51963;46.052;14.544;2022-10-22T03:38:51;98297.09;;;15.50;100.00
56182;BME280;51963;46.052;14.544;2022-10-22T03:41:17;98298.50;;;15.53;100.00
56182;BME280;51963;46.052;14.544;2022-10-22T03:43:43;98289.91;;;15.51;100.00
56182;BME280;51963;46.052;14.544;2022-10-22T03:46:14;98300.81;;;15.68;100.00
56182;BME280;51963;46.052;14.544;2022-10-22T03:48:39;98300.88;;;15.80;100.00
56182;BME280;51963;46.052;14.544;2022-10-22T03:51:06;98293.31;;;15.77;100.00
56182;BME280;51963;46.052;14.544;2022-10-22T03:53:31;98301.00;;;15.85;100.00
56182;BME280;51963;46.052;14.544;2022-10-22T03:55:57;98287.88;;;15.90;100.00
56182;BME280;51963;46.052;14.544;2022-10-22T03:58:23;98277.81;;;15.92;100.00
56182;BME280;51963;46.052;14.544;2022-10-22T04:00:48;98275.28;;;15.97;100.00
56182;BME280;51963;46.052;14.544;2022-10-22T04:03:14;98275.09;;;16.11;100.00
56182;BME280;51963;46.052;14.544;2022-10-22T04:05:40;98271.13;;;16.02;100.00
56182;BME280;51963;46.052;14.544;2022-10-22T04:08:05;98270.09;;;16.03;100.00
56182;BME280;51963;46.052;14.544;2022-10-22T04:10:31;98264.50;;;16.04;100.00
56182;BME280;51963;46.052;14.544;2022-10-22T04:12:56;98258.38;;;16.04;100.00
56182;BME280;51963;46.052;14.544;2022-10-22T04:15:22;98252.47;;;16.02;100.00
56182;BME280;51963;46.052;14.544;2022-10-22T04:17:51;98263.72;;;16.04;100.00
56182;BME280;51963;46.052;14.544;2022-10-22T04:20:16;98251.19;;;16.04;100.00
56182;BME280;51963;46.052;14.544;2022-10-22T04:22:42;98262.44;;;16.06;100.00
56182;BME280;51963;46.052;14.544;2022-10-22T04:25:08;98254.81;;;16.10;100.00
56182;BME280;51963;46.052;14.544;2022-10-22T04:27:34;98251.69;;;16.13;100.00
56182;BME280;51963;46.052;14.544;2022-10-22T04:30:00;98258.28;;;16.10;100.00
56182;BME280;51963;46.052;14.544;2022-10-22T04:32:26;98252.13;;;16.10;100.00
56182;BME280;51963;46.052;14.544;2022-10-22T04:34:52;98275.19;;;16.04;100.00
56182;BME280;51963;46.052;14.544;2022-10-22T04:37:18;98253.94;;;15.97;100.00
56182;BME280;51963;46.052;14.544;2022-10-22T04:39:44;98263.34;;;16.00;100.00
56182;BME280;51963;46.052;14.544;2022-10-22T04:42:09;98267.75;;;16.06;100.00
56182;BME280;51963;46.052;14.544;2022-10-22T04:44:35;98270.66;;;16.05;100.00
56182;BME280;51963;46.052;14.544;2022-10-22T04:47:01;98269.03;;;16.04;100.00
56182;BME280;51963;46.052;14.544;2022-10-22T04:49:27;98271.13;;;16.02;100.00
56182;BME280;51963;46.052;14.544;2022-10-22T04:51:52;98263.72;;;16.04;100.00
56182;BME280;51963;46.052;14.544;2022-10-22T04:54:18;98261.75;;;16.11;100.00
56182;BME280;51963;46.052;14.544;2022-10-22T04:56:44;98277.53;;;16.12;100.00
56182;BME280;51963;46.052;14.544;2022-10-22T04:59:10;98254.25;;;16.20;100.00
56182;BME280;51963;46.052;14.544;2022-10-22T05:01:39;98268.13;;;16.10;100.00
56182;BME280;51963;46.052;14.544;2022-10-22T05:04:07;98263.16;;;16.13;100.00
56182;BME280;51963;46.052;14.544;2022-10-22T05:06:34;98255.41;;;16.12;100.00
56182;BME280;51963;46.052;14.544;2022-10-22T05:09:04;98250.50;;;16.09;100.00
56182;BME280;51963;46.052;14.544;2022-10-22T05:11:34;98251.56;;;16.08;100.00
56182;BME280;51963;46.052;14.544;2022-10-22T05:14:03;98251.75;;;16.06;100.00
56182;BME280;51963;46.052;14.544;2022-10-22T05:16:30;98247.53;;;16.17;100.00
56182;BME280;51963;46.052;14.544;2022-10-22T05:18:58;98233.78;;;16.02;100.00
56182;BME280;51963;46.052;14.544;2022-10-22T05:21:24;98239.59;;;16.10;100.00
56182;BME280;51963;46.052;14.544;2022-10-22T05:23:50;98245.91;;;16.16;100.00
56182;BME280;51963;46.052;14.544;2022-10-22T05:26:18;98249.16;;;16.18;100.00
56182;BME280;51963;46.052;14.544;2022-10-22T05:28:45;98231.97;;;16.14;100.00
56182;BME280;51963;46.052;14.544;2022-10-22T05:31:12;98234.78;;;16.19;100.00
56182;BME280;51963;46.052;14.544;2022-10-22T05:33:39;98231.78;;;16.27;100.00
56182;BME280;51963;46.052;14.544;2022-10-22T05:36:08;98236.22;;;16.34;100.00
56182;BME280;51963;46.052;14.544;2022-10-22T05:38:41;98241.09;;;16.37;100.00
56182;BME280;51963;46.052;14.544;2022-10-22T05:41:13;98240.25;;;16.36;100.00
56182;BME280;51963;46.052;14.544;2022-10-22T05:43:39;98238.09;;;16.57;99.48
56182;BME280;51963;46.052;14.544;2022-10-22T05:46:10;98230.44;;;16.61;99.18
56182;BME280;51963;46.052;14.544;2022-10-22T05:48:36;98223.72;;;16.70;98.20
56182;BME280;51963;46.052;14.544;2022-10-22T05:51:04;98222.22;;;16.86;97.50
56182;BME280;51963;46.052;14.544;2022-10-22T05:53:31;98224.41;;;16.89;97.39
56182;BME280;51963;46.052;14.544;2022-10-22T05:56:05;98225.03;;;17.03;96.57
56182;BME280;51963;46.052;14.544;2022-10-22T05:58:32;98210.13;;;16.95;96.08
56182;BME280;51963;46.052;14.544;2022-10-22T06:01:07;98248.50;;;17.01;96.77
56182;BME280;51963;46.052;14.544;2022-10-22T06:03:34;98244.06;;;17.19;95.69
56182;BME280;51963;46.052;14.544;2022-10-22T06:06:01;98256.59;;;17.18;96.10
56182;BME280;51963;46.052;14.544;2022-10-22T06:08:28;98247.91;;;17.11;96.72
56182;BME280;51963;46.052;14.544;2022-10-22T06:10:54;98248.72;;;17.11;96.98
56182;BME280;51963;46.052;14.544;2022-10-22T06:13:20;98268.81;;;17.02;97.65
56182;BME280;51963;46.052;14.544;2022-10-22T06:15:48;98271.84;;;17.18;96.79
56182;BME280;51963;46.052;14.544;2022-10-22T06:18:14;98253.25;;;16.99;97.95
56182;BME280;51963;46.052;14.544;2022-10-22T06:20:40;98261.25;;;17.11;97.30
56182;BME280;51963;46.052;14.544;2022-10-22T06:23:07;98256.72;;;17.11;97.34
56182;BME280;51963;46.052;14.544;2022-10-22T06:25:35;98255.91;;;17.23;97.07
56182;BME280;51963;46.052;14.544;2022-10-22T06:28:01;98264.97;;;17.22;96.94
56182;BME280;51963;46.052;14.544;2022-10-22T06:30:27;98276.00;;;17.13;97.46
56182;BME280;51963;46.052;14.544;2022-10-22T06:32:55;98276.72;;;17.21;97.52
56182;BME280;51963;46.052;14.544;2022-10-22T06:35:21;98284.47;;;17.22;97.37
56182;BME280;51963;46.052;14.544;2022-10-22T06:37:47;98278.56;;;17.08;98.01
56182;BME280;51963;46.052;14.544;2022-10-22T06:40:12;98274.03;;;17.09;98.17
56182;BME280;51963;46.052;14.544;2022-10-22T06:42:38;98271.34;;;17.09;98.25
56182;BME280;51963;46.052;14.544;2022-10-22T06:45:04;98268.22;;;17.12;98.14
56182;BME280;51963;46.052;14.544;2022-10-22T06:47:30;98269.28;;;16.99;98.75
56182;BME280;51963;46.052;14.544;2022-10-22T06:49:57;98260.22;;;17.00;98.64
56182;BME280;51963;46.052;14.544;2022-10-22T06:52:23;98269.25;;;17.11;98.23
56182;BME280;51963;46.052;14.544;2022-10-22T06:54:49;98271.13;;;17.10;98.43
56182;BME280;51963;46.052;14.544;2022-10-22T06:57:15;98269.97;;;17.30;97.39
56182;BME280;51963;46.052;14.544;2022-10-22T06:59:40;98274.84;;;17.33;97.00
56182;BME280;51963;46.052;14.544;2022-10-22T07:02:08;98269.84;;;17.25;97.36
56182;BME280;51963;46.052;14.544;2022-10-22T07:04:34;98264.25;;;17.38;97.31
56182;BME280;51963;46.052;14.544;2022-10-22T07:07:00;98277.94;;;17.42;96.61
56182;BME280;51963;46.052;14.544;2022-10-22T07:09:26;98278.31;;;17.34;96.93
56182;BME280;51963;46.052;14.544;2022-10-22T07:11:52;98282.75;;;17.28;97.69
56182;BME280;51963;46.052;14.544;2022-10-22T07:14:17;98275.31;;;17.30;97.14
56182;BME280;51963;46.052;14.544;2022-10-22T07:16:43;98276.94;;;17.31;97.04
56182;BME280;51963;46.052;14.544;2022-10-22T07:19:12;98258.91;;;17.26;96.87
56182;BME280;51963;46.052;14.544;2022-10-22T07:21:38;98283.06;;;17.43;96.99
56182;BME280;51963;46.052;14.544;2022-10-22T07:24:04;98288.16;;;17.45;96.41
56182;BME280;51963;46.052;14.544;2022-10-22T07:26:30;98290.16;;;17.50;96.41
56182;BME280;51963;46.052;14.544;2022-10-22T07:28:58;98275.97;;;17.61;95.48
56182;BME280;51963;46.052;14.544;2022-10-22T07:31:24;98273.19;;;17.56;95.72
56182;BME280;51963;46.052;14.544;2022-10-22T07:33:50;98278.53;;;17.56;96.47
56182;BME280;51963;46.052;14.544;2022-10-22T07:36:16;98277.38;;;17.52;96.33
56182;BME280;51963;46.052;14.544;2022-10-22T07:38:46;98260.19;;;17.48;96.07
56182;BME280;51963;46.052;14.544;2022-10-22T07:41:15;98276.75;;;17.62;95.80
56182;BME280;51963;46.052;14.544;2022-10-22T07:43:41;98274.53;;;17.70;95.23
56182;BME280;51963;46.052;14.544;2022-10-22T07:46:07;98261.97;;;17.71;94.95
56182;BME280;51963;46.052;14.544;2022-10-22T07:48:35;98276.75;;;17.73;95.24
56182;BME280;51963;46.052;14.544;2022-10-22T07:51:01;98281.94;;;17.80;95.03
56182;BME280;51963;46.052;14.544;2022-10-22T07:53:27;98275.69;;;17.74;95.11
56182;BME280;51963;46.052;14.544;2022-10-22T07:55:52;98273.03;;;17.74;95.55
56182;BME280;51963;46.052;14.544;2022-10-22T07:58:20;98275.16;;;17.49;96.80
56182;BME280;51963;46.052;14.544;2022-10-22T08:00:46;98290.41;;;17.12;99.83
56182;BME280;51963;46.052;14.544;2022-10-22T08:03:14;98282.06;;;16.97;100.00
56182;BME280;51963;46.052;14.544;2022-10-22T08:05:43;98286.03;;;16.76;100.00
56182;BME280;51963;46.052;14.544;2022-10-22T08:08:11;98280.56;;;16.59;100.00
56182;BME280;51963;46.052;14.544;2022-10-22T08:10:36;98284.75;;;16.54;100.00
56182;BME280;51963;46.052;14.544;2022-10-22T08:13:02;98295.47;;;16.36;100.00
56182;BME280;51963;46.052;14.544;2022-10-22T08:15:28;98299.66;;;16.43;100.00
56182;BME280;51963;46.052;14.544;2022-10-22T08:17:55;98304.88;;;16.38;100.00
56182;BME280;51963;46.052;14.544;2022-10-22T08:20:24;98306.56;;;16.51;100.00
56182;BME280;51963;46.052;14.544;2022-10-22T08:22:51;98305.50;;;16.52;100.00
56182;BME280;51963;46.052;14.544;2022-10-22T08:25:17;98296.53;;;16.35;100.00
56182;BME280;51963;46.052;14.544;2022-10-22T08:27:43;98298.03;;;16.31;100.00
56182;BME280;51963;46.052;14.544;2022-10-22T08:30:09;98304.00;;;16.56;100.00
56182;BME280;51963;46.052;14.544;2022-10-22T08:32:35;98300.44;;;16.63;100.00
56182;BME280;51963;46.052;14.544;2022-10-22T08:35:01;98307.78;;;16.37;100.00
56182;BME280;51963;46.052;14.544;2022-10-22T08:37:27;98307.66;;;16.32;100.00
56182;BME280;51963;46.052;14.544;2022-10-22T08:39:53;98304.06;;;16.38;100.00
56182;BME280;51963;46.052;14.544;2022-10-22T08:45:14;98324.91;;;16.60;100.00
56182;BME280;51963;46.052;14.544;2022-10-22T08:48:16;98322.69;;;16.56;100.00
56182;BME280;51963;46.052;14.544;2022-10-22T08:50:48;98320.59;;;16.59;100.00
56182;BME280;51963;46.052;14.544;2022-10-22T08:53:17;98303.50;;;16.36;100.00
56182;BME280;51963;46.052;14.544;2022-10-22T08:55:44;98307.50;;;16.26;100.00
56182;BME280;51963;46.052;14.544;2022-10-22T08:58:36;98326.19;;;16.26;100.00
56182;BME280;51963;46.052;14.544;2022-10-22T09:06:17;98323.91;;;16.11;100.00
56182;BME280;51963;46.052;14.544;2022-10-22T09:08:45;98322.94;;;15.87;100.00
56182;BME280;51963;46.052;14.544;2022-10-22T09:13:39;98324.78;;;15.68;100.00
56182;BME280;51963;46.052;14.544;2022-10-22T09:17:01;98333.97;;;15.53;100.00
56182;BME280;51963;46.052;14.544;2022-10-22T09:19:29;98333.06;;;15.41;100.00
56182;BME280;51963;46.052;14.544;2022-10-22T09:22:06;98347.31;;;15.28;100.00
56182;BME280;51963;46.052;14.544;2022-10-22T09:24:51;98344.31;;;15.18;100.00
56182;BME280;51963;46.052;14.544;2022-10-22T09:27:26;98340.63;;;15.19;100.00
56182;BME280;51963;46.052;14.544;2022-10-22T09:29:52;98334.06;;;15.21;100.00
56182;BME280;51963;46.052;14.544;2022-10-22T09:32:18;98333.94;;;15.09;100.00
56182;BME280;51963;46.052;14.544;2022-10-22T09:34:47;98352.31;;;15.18;100.00
56182;BME280;51963;46.052;14.544;2022-10-22T09:37:19;98350.19;;;15.27;100.00
56182;BME280;51963;46.052;14.544;2022-10-22T09:39:53;98348.06;;;15.35;100.00
56182;BME280;51963;46.052;14.544;2022-10-22T09:42:21;98351.31;;;15.37;100.00
56182;BME280;51963;46.052;14.544;2022-10-22T09:44:59;98364.34;;;15.46;100.00
56182;BME280;51963;46.052;14.544;2022-10-22T09:52:37;98344.53;;;15.42;100.00
56182;BME280;51963;46.052;14.544;2022-10-22T09:55:13;98358.00;;;15.47;100.00
56182;BME280;51963;46.052;14.544;2022-10-22T09:57:39;98349.19;;;15.46;100.00
56182;BME280;51963;46.052;14.544;2022-10-22T10:00:07;98353.50;;;15.47;100.00
56182;BME280;51963;46.052;14.544;2022-10-22T10:02:34;98350.84;;;15.47;100.00
56182;BME280;51963;46.052;14.544;2022-10-22T10:05:05;98342.59;;;15.49;100.00
56182;BME280;51963;46.052;14.544;2022-10-22T10:07:33;98344.97;;;15.57;100.00
56182;BME280;51963;46.052;14.544;2022-10-22T10:09:59;98351.59;;;15.73;100.00
56182;BME280;51963;46.052;14.544;2022-10-22T10:15:39;98346.91;;;15.68;100.00
56182;BME280;51963;46.052;14.544;2022-10-22T10:26:32;98354.00;;;16.00;100.00
56182;BME280;51963;46.052;14.544;2022-10-22T10:46:15;98340.56;;;15.88;100.00
56182;BME280;51963;46.052;14.544;2022-10-22T10:48:59;98341.03;;;16.04;100.00
56182;BME280;51963;46.052;14.544;2022-10-22T10:51:38;98343.88;;;16.82;100.00
56182;BME280;51963;46.052;14.544;2022-10-22T10:59:46;98327.91;;;15.83;100.00
56182;BME280;51963;46.052;14.544;2022-10-22T11:05:21;98329.16;;;15.62;100.00
56182;BME280;51963;46.052;14.544;2022-10-22T11:10:47;98321.13;;;15.44;100.00
56182;BME280;51963;46.052;14.544;2022-10-22T11:13:30;98301.84;;;15.48;100.00
56182;BME280;51963;46.052;14.544;2022-10-22T11:16:13;98317.09;;;15.78;100.00
56182;BME280;51963;46.052;14.544;2022-10-22T11:21:49;98317.66;;;15.24;100.00
56182;BME280;51963;46.052;14.544;2022-10-22T11:24:38;98318.56;;;15.74;100.00
56182;BME280;51963;46.052;14.544;2022-10-22T11:27:35;98316.19;;;15.29;100.00
56182;BME280;51963;46.052;14.544;2022-10-22T11:30:13;98318.16;;;15.33;100.00
56182;BME280;51963;46.052;14.544;2022-10-22T11:32:41;98311.47;;;15.49;100.00
56182;BME280;51963;46.052;14.544;2022-10-22T11:35:26;98325.28;;;15.77;100.00
56182;BME280;51963;46.052;14.544;2022-10-22T11:37:56;98320.53;;;15.42;100.00
56182;BME280;51963;46.052;14.544;2022-10-22T11:43:08;98302.66;;;16.05;100.00
56182;BME280;51963;46.052;14.544;2022-10-22T11:45:40;98305.38;;;16.17;100.00
56182;BME280;51963;46.052;14.544;2022-10-22T11:50:57;98301.34;;;15.95;100.00
56182;BME280;51963;46.052;14.544;2022-10-22T11:55:52;98303.47;;;15.68;100.00
56182;BME280;51963;46.052;14.544;2022-10-22T11:58:42;98298.88;;;15.75;100.00
56182;BME280;51963;46.052;14.544;2022-10-22T12:03:40;98299.53;;;15.52;100.00
56182;BME280;51963;46.052;14.544;2022-10-22T12:11:45;98285.25;;;15.46;100.00
56182;BME280;51963;46.052;14.544;2022-10-22T12:14:21;98270.66;;;15.67;100.00
56182;BME280;51963;46.052;14.544;2022-10-22T12:19:23;98265.19;;;15.81;100.00
56182;BME280;51963;46.052;14.544;2022-10-22T12:21:57;98268.31;;;15.96;100.00
56182;BME280;51963;46.052;14.544;2022-10-22T12:24:24;98263.13;;;16.02;100.00
56182;BME280;51963;46.052;14.544;2022-10-22T12:26:53;98271.28;;;16.19;100.00
56182;BME280;51963;46.052;14.544;2022-10-22T12:29:21;98269.56;;;15.94;100.00
56182;BME280;51963;46.052;14.544;2022-10-22T12:31:51;98268.50;;;16.13;100.00
56182;BME280;51963;46.052;14.544;2022-10-22T12:34:21;98255.72;;;16.04;100.00
56182;BME280;51963;46.052;14.544;2022-10-22T12:36:49;98256.56;;;16.16;100.00
56182;BME280;51963;46.052;14.544;2022-10-22T12:39:21;98262.09;;;16.03;100.00
56182;BME280;51963;46.052;14.544;2022-10-22T12:41:51;98274.38;;;15.66;100.00
56182;BME280;51963;46.052;14.544;2022-10-22T12:44:17;98263.53;;;15.80;100.00
56182;BME280;51963;46.052;14.544;2022-10-22T12:46:46;98272.09;;;15.51;100.00
56182;BME280;51963;46.052;14.544;2022-10-22T12:49:34;98256.31;;;15.31;100.00
56182;BME280;51963;46.052;14.544;2022-10-22T12:52:05;98259.81;;;15.50;100.00
56182;BME280;51963;46.052;14.544;2022-10-22T12:54:33;98254.16;;;15.77;100.00
56182;BME280;51963;46.052;14.544;2022-10-22T12:57:01;98251.56;;;16.08;100.00
56182;BME280;51963;46.052;14.544;2022-10-22T12:59:37;98258.53;;;16.21;100.00
56182;BME280;51963;46.052;14.544;2022-10-22T13:02:15;98295.56;;;15.98;100.00
56182;BME280;51963;46.052;14.544;2022-10-22T13:04:41;98295.03;;;15.52;100.00
56182;BME280;51963;46.052;14.544;2022-10-22T13:07:37;98272.38;;;15.24;100.00
56182;BME280;51963;46.052;14.544;2022-10-22T13:10:18;98293.47;;;15.45;100.00
56182;BME280;51963;46.052;14.544;2022-10-22T13:12:49;98299.19;;;15.04;100.00
56182;BME280;51963;46.052;14.544;2022-10-22T13:18:02;98295.97;;;14.70;100.00
56182;BME280;51963;46.052;14.544;2022-10-22T13:20:31;98298.31;;;14.53;100.00
56182;BME280;51963;46.052;14.544;2022-10-22T13:23:04;98316.28;;;14.58;100.00
56182;BME280;51963;46.052;14.544;2022-10-22T13:25:34;98326.47;;;14.67;100.00
56182;BME280;51963;46.052;14.544;2022-10-22T13:28:21;98349.88;;;14.91;100.00
56182;BME280;51963;46.052;14.544;2022-10-22T13:30:53;98348.72;;;14.41;100.00
56182;BME280;51963;46.052;14.544;2022-10-22T13:33:35;98335.72;;;14.26;100.00
56182;BME280;51963;46.052;14.544;2022-10-22T13:36:02;98327.56;;;14.14;100.00
56182;BME280;51963;46.052;14.544;2022-10-22T13:38:29;98326.44;;;13.97;100.00
56182;BME280;51963;46.052;14.544;2022-10-22T13:40:55;98351.19;;;13.90;100.00
56182;BME280;51963;46.052;14.544;2022-10-22T13:43:21;98355.28;;;13.86;100.00
56182;BME280;51963;46.052;14.544;2022-10-22T13:45:53;98379.66;;;13.76;100.00
56182;BME280;51963;46.052;14.544;2022-10-22T13:48:21;98385.81;;;13.57;100.00
56182;BME280;51963;46.052;14.544;2022-10-22T13:50:48;98400.53;;;13.59;100.00
56182;BME280;51963;46.052;14.544;2022-10-22T13:53:17;98392.97;;;13.56;100.00
56182;BME280;51963;46.052;14.544;2022-10-22T13:55:44;98418.91;;;13.68;100.00
56182;BME280;51963;46.052;14.544;2022-10-22T13:58:15;98435.25;;;13.64;100.00
56182;BME280;51963;46.052;14.544;2022-10-22T14:00:49;98451.59;;;13.61;100.00
56182;BME280;51963;46.052;14.544;2022-10-22T14:03:19;98431.59;;;13.52;100.00
56182;BME280;51963;46.052;14.544;2022-10-22T14:05:46;98417.66;;;13.37;100.00
56182;BME280;51963;46.052;14.544;2022-10-22T14:08:18;98414.19;;;13.29;100.00
56182;BME280;51963;46.052;14.544;2022-10-22T14:10:45;98416.63;;;13.38;100.00
56182;BME280;51963;46.052;14.544;2022-10-22T14:13:12;98429.13;;;13.44;100.00
56182;BME280;51963;46.052;14.544;2022-10-22T14:15:39;98476.13;;;13.57;100.00
56182;BME280;51963;46.052;14.544;2022-10-22T14:18:06;98479.78;;;13.49;100.00
56182;BME280;51963;46.052;14.544;2022-10-22T14:20:38;98474.44;;;13.35;100.00
56182;BME280;51963;46.052;14.544;2022-10-22T14:23:18;98469.97;;;13.36;100.00
56182;BME280;51963;46.052;14.544;2022-10-22T14:25:44;98470.38;;;13.33;100.00
56182;BME280;51963;46.052;14.544;2022-10-22T14:28:12;98481.44;;;13.43;100.00
56182;BME280;51963;46.052;14.544;2022-10-22T14:30:39;98474.88;;;13.39;100.00
56182;BME280;51963;46.052;14.544;2022-10-22T14:33:17;98480.78;;;13.28;100.00
56182;BME280;51963;46.052;14.544;2022-10-22T14:35:44;98493.69;;;13.51;100.00
56182;BME280;51963;46.052;14.544;2022-10-22T14:38:10;98516.16;;;13.55;100.00
56182;BME280;51963;46.052;14.544;2022-10-22T14:40:36;98515.75;;;13.45;100.00
56182;BME280;51963;46.052;14.544;2022-10-22T14:43:04;98521.47;;;13.42;100.00